< < Back
Terminal Aerodrome Forecast


Current Version              Previous Versions:   1  2  3  4  5  6  7  8  9  

Terminal Aerodrome Forecast

864
FTUS42 KMLB 210200 AAA
TAFDAB
TAF AMD
KDAB 210229Z 2102/2124 35008KT P6SM BKN015 OVC020
      TEMPO 2110/2113 BKN008 OVC015
     FM211600 01013KT P6SM SCT025 BKN035=

Latest METAR

936
SAUS80 KWBC 210400
MTRDAB
METAR KDAB 210353Z 31005KT 10SM FEW017 OVC025 16/14 A3009 RMK AO2 SLP189
T01610139


USA.gov is the U.S. government's official web portal to all federal, state and local government web resources and services.